Time;durP1;ratioP1;P1;durP2;ratioP2;P2;SDS_P1;SDS_P2;PMS_P1;PMS_P2;Temp;Humidity;BMP_temperature;BMP_pressure;BME280_temperature;BME280_humidity;BME280_pressure;Samples;Min_cycle;Max_cycle;Signal;HPM_P1;HPM_P2
2020/12/03 00:01:59;;;;;;;198.63;42.92;;;;;;;8.65;77.28;100824.09;5033316;28;20150;-78
2020/12/03 00:04:25;;;;;;;204.07;42.25;;;;;;;8.68;77.36;100826.63;5051660;28;20037;-77
2020/12/03 00:06:58;;;;;;;204.10;43.78;;;;;;;8.70;77.20;100824.78;5032360;28;20092;-77
2020/12/03 00:09:24;;;;;;;203.70;42.50;;;;;;;8.74;77.29;100829.03;5015399;28;20508;-77
2020/12/03 00:11:56;;;;;;;195.98;43.42;;;;;;;8.76;77.00;100816.63;5032681;28;20049;-77
2020/12/03 00:14:22;;;;;;;198.57;42.60;;;;;;;8.78;77.25;100808.66;5049494;28;20037;-78
2020/12/03 00:16:51;;;;;;;201.13;43.50;;;;;;;8.80;77.02;100805.94;5050825;28;20499;-77
2020/12/03 00:19:20;;;;;;;182.27;42.58;;;;;;;8.80;77.13;100793.59;5051618;28;20052;-78
2020/12/03 00:21:49;;;;;;;176.93;42.40;;;;;;;8.80;76.92;100795.38;5033157;28;20045;-78
2020/12/03 00:24:23;;;;;;;179.23;43.00;;;;;;;8.80;76.84;100790.06;5032897;28;20052;-77
2020/12/03 00:26:50;;;;;;;178.88;43.30;;;;;;;8.81;77.01;100781.25;5033720;28;20420;-78
2020/12/03 00:29:17;;;;;;;180.05;44.88;;;;;;;8.81;77.10;100786.53;5064071;23;20068;-81
2020/12/03 00:31:44;;;;;;;180.40;43.80;;;;;;;8.81;76.92;100781.25;5010634;28;20044;-81
2020/12/03 00:34:11;;;;;;;196.32;45.25;;;;;;;8.80;76.92;100775.13;5034140;28;20037;-81
2020/12/03 00:36:38;;;;;;;201.85;45.65;;;;;;;8.80;76.92;100771.59;5004821;28;20049;-81
2020/12/03 00:39:13;;;;;;;181.55;44.70;;;;;;;8.76;76.85;100763.81;4996652;28;20053;-81
2020/12/03 00:41:39;;;;;;;163.95;44.80;;;;;;;8.78;76.74;100761.13;4996865;28;20050;-81
2020/12/03 00:44:05;;;;;;;174.75;44.08;;;;;;;8.77;76.70;100760.22;4983412;28;20505;-81
2020/12/03 00:46:33;;;;;;;156.75;39.22;;;;;;;8.76;76.90;100747.97;4994345;28;20049;-81
2020/12/03 00:49:00;;;;;;;151.18;42.88;;;;;;;8.74;76.94;100739.25;5013129;28;20501;-81
2020/12/03 00:51:26;;;;;;;170.85;45.00;;;;;;;8.72;76.62;100734.94;4989939;28;20047;-81
2020/12/03 00:53:52;;;;;;;157.75;42.60;;;;;;;8.68;76.62;100734.22;5013690;28;20057;-80
2020/12/03 00:56:19;;;;;;;172.75;43.75;;;;;;;8.65;76.81;100722.91;5011522;28;20465;-81
2020/12/03 00:58:49;;;;;;;165.75;43.45;;;;;;;8.63;76.85;100725.59;4993746;28;20109;-81
2020/12/03 01:01:17;;;;;;;183.10;45.22;;;;;;;8.61;76.75;100722.16;4979764;28;20359;-81
2020/12/03 01:03:43;;;;;;;171.70;45.85;;;;;;;8.57;76.63;100710.00;5012808;28;20042;-81
2020/12/03 01:06:09;;;;;;;161.88;43.10;;;;;;;8.57;77.23;100704.72;5013683;28;20034;-81
2020/12/03 01:08:36;;;;;;;182.27;45.60;;;;;;;8.55;76.95;100710.06;4996240;28;20108;-81
2020/12/03 01:11:02;;;;;;;171.10;44.03;;;;;;;8.55;77.06;100706.53;4985698;28;20052;-81
2020/12/03 01:13:28;;;;;;;182.02;45.10;;;;;;;8.54;77.12;100700.41;5012641;28;20109;-81
2020/12/03 01:15:56;;;;;;;178.52;46.40;;;;;;;8.53;76.50;100700.47;4996514;28;20042;-81
2020/12/03 01:18:23;;;;;;;171.90;45.08;;;;;;;8.52;77.20;100696.97;5010959;28;20404;-81
2020/12/03 01:20:50;;;;;;;174.23;45.65;;;;;;;8.52;76.84;100696.97;4994501;28;20054;-81
2020/12/03 01:23:16;;;;;;;163.07;46.90;;;;;;;8.53;77.18;100692.56;5014266;28;20145;-81
2020/12/03 01:25:42;;;;;;;169.43;45.88;;;;;;;8.52;77.04;100690.84;4996400;28;20489;-81
2020/12/03 01:28:08;;;;;;;162.90;45.50;;;;;;;8.51;77.03;100684.72;4996692;28;20129;-81
2020/12/03 01:30:35;;;;;;;173.35;42.55;;;;;;;8.50;77.21;100688.25;5013710;28;20052;-81
2020/12/03 01:33:01;;;;;;;171.07;44.50;;;;;;;8.49;77.31;100680.41;5011393;28;20108;-81
2020/12/03 01:35:27;;;;;;;160.32;46.40;;;;;;;8.51;77.09;100674.16;4965957;28;20050;-81
2020/12/03 01:37:53;;;;;;;174.70;46.30;;;;;;;8.50;76.82;100671.56;4991195;28;20137;-81
2020/12/03 01:40:24;;;;;;;169.57;44.63;;;;;;;8.48;76.91;100673.41;5016896;28;20077;-81
2020/12/03 01:42:53;;;;;;;165.65;45.17;;;;;;;8.47;77.15;100666.41;4977800;28;20054;-81
2020/12/03 01:45:44;;;;;;;141.38;46.20;;;;;;;8.47;76.83;100666.41;5016004;28;20056;-81
2020/12/03 01:48:15;;;;;;;175.50;45.70;;;;;;;8.43;76.80;100659.53;5014475;28;20070;-80
2020/12/03 01:50:41;;;;;;;180.57;43.88;;;;;;;8.39;76.99;100664.88;4998299;28;20124;-81
2020/12/03 01:53:08;;;;;;;175.73;44.50;;;;;;;8.37;77.19;100666.72;4967911;28;20046;-81
2020/12/03 01:55:34;;;;;;;189.95;46.40;;;;;;;8.35;76.93;100658.00;5013458;28;20065;-81
2020/12/03 01:58:03;;;;;;;181.00;47.17;;;;;;;8.33;76.91;100649.31;4999135;28;20497;-81
2020/12/03 02:00:30;;;;;;;171.18;45.15;;;;;;;8.32;77.05;100652.84;5014476;28;20042;-81
2020/12/03 02:02:56;;;;;;;176.52;47.45;;;;;;;8.29;77.08;100652.97;5014862;28;20045;-81
2020/12/03 02:05:31;;;;;;;172.68;46.80;;;;;;;8.28;77.01;100640.69;4996626;28;20038;-81
2020/12/03 02:07:57;;;;;;;179.90;46.00;;;;;;;8.28;76.82;100645.97;5015521;28;20285;-81
2020/12/03 02:10:24;;;;;;;189.38;46.10;;;;;;;8.25;77.03;100632.91;4990544;28;20053;-80
2020/12/03 02:12:51;;;;;;;171.82;43.70;;;;;;;8.23;77.04;100632.13;4985463;28;20076;-81
2020/12/03 02:15:20;;;;;;;194.38;46.45;;;;;;;8.22;77.00;100630.38;5015939;28;20497;-81
2020/12/03 02:17:47;;;;;;;165.50;42.10;;;;;;;8.19;76.84;100625.22;5016661;28;20061;-81
2020/12/03 02:20:17;;;;;;;173.77;45.20;;;;;;;8.14;76.67;100616.66;4993396;28;20120;-81
2020/12/03 02:22:44;;;;;;;175.45;43.78;;;;;;;8.10;76.44;100620.28;5009763;28;20080;-81
2020/12/03 02:25:11;;;;;;;181.70;44.67;;;;;;;8.05;76.50;100617.84;4984438;28;20457;-81
2020/12/03 02:27:39;;;;;;;159.82;43.03;;;;;;;7.99;76.50;100616.31;4997596;28;20049;-81
2020/12/03 02:30:08;;;;;;;161.18;43.25;;;;;;;7.96;76.79;100608.50;5011189;28;20049;-81
2020/12/03 02:32:34;;;;;;;172.48;43.38;;;;;;;7.92;76.82;100612.16;5014924;28;20076;-81
2020/12/03 02:35:01;;;;;;;178.98;43.30;;;;;;;7.89;76.76;100601.75;4998374;28;20034;-80
2020/12/03 02:37:28;;;;;;;157.95;39.55;;;;;;;7.88;76.93;100600.03;5014439;28;20042;-81
2020/12/03 02:39:54;;;;;;;158.90;41.97;;;;;;;7.87;77.21;100592.16;4987484;28;20042;-81
2020/12/03 02:42:21;;;;;;;140.55;41.30;;;;;;;7.87;77.30;100577.19;5014056;28;20527;-80
2020/12/03 02:44:48;;;;;;;179.02;43.33;;;;;;;7.88;77.50;100578.94;5014451;28;20048;-80
2020/12/03 02:47:17;;;;;;;172.70;44.30;;;;;;;7.88;77.04;100568.38;4998065;28;20520;-81
2020/12/03 02:49:44;;;;;;;154.00;43.13;;;;;;;7.89;77.14;100566.59;5009194;28;20061;-81
2020/12/03 02:52:19;;;;;;;157.73;42.88;;;;;;;7.90;77.02;100550.72;5014501;28;20049;-81
2020/12/03 02:54:47;;;;;;;172.80;42.42;;;;;;;7.90;77.27;100547.25;4984700;28;20066;-81
2020/12/03 02:57:14;;;;;;;171.63;45.35;;;;;;;7.90;77.50;100545.44;5013981;28;20485;-81
2020/12/03 02:59:41;;;;;;;165.18;44.08;;;;;;;7.90;77.55;100540.19;4981792;28;20516;-81
2020/12/03 03:02:07;;;;;;;158.25;42.92;;;;;;;7.91;77.24;100544.53;4997955;28;20049;-81
2020/12/03 03:04:33;;;;;;;154.05;41.75;;;;;;;7.92;77.50;100535.69;5016038;28;20045;-81
2020/12/03 03:06:59;;;;;;;143.73;42.35;;;;;;;7.93;77.17;100533.91;4997206;28;20042;-80
2020/12/03 03:09:26;;;;;;;144.10;44.97;;;;;;;7.94;77.44;100528.59;4989332;28;20088;-81
2020/12/03 03:11:52;;;;;;;168.02;43.80;;;;;;;7.95;77.32;100527.69;4986651;28;20088;-81
2020/12/03 03:14:19;;;;;;;161.38;43.70;;;;;;;7.96;77.40;100526.75;4998789;28;20472;-81
2020/12/03 03:16:47;;;;;;;156.85;44.72;;;;;;;7.97;77.08;100520.56;4995582;28;20568;-81
2020/12/03 03:19:14;;;;;;;173.82;40.65;;;;;;;7.96;77.27;100510.94;4978330;28;20096;-80
2020/12/03 03:21:40;;;;;;;159.30;42.22;;;;;;;7.95;77.17;100505.75;4967361;28;20052;-81
2020/12/03 03:24:06;;;;;;;137.88;38.30;;;;;;;7.95;77.11;100511.84;4979406;28;20077;-81
2020/12/03 03:26:32;;;;;;;140.35;39.28;;;;;;;7.95;77.44;100503.09;4998018;28;20108;-81
2020/12/03 03:28:58;;;;;;;159.93;40.20;;;;;;;7.94;77.19;100489.03;5015461;28;20049;-81
2020/12/03 03:31:24;;;;;;;159.13;40.53;;;;;;;7.93;76.98;100482.06;5020990;28;20042;-81
2020/12/03 03:33:51;;;;;;;141.80;37.63;;;;;;;7.92;76.95;100495.31;5026742;28;20049;-81
2020/12/03 03:36:17;;;;;;;148.95;38.33;;;;;;;7.90;77.24;100487.44;4994706;28;20413;-80
2020/12/03 03:38:43;;;;;;;120.80;38.17;;;;;;;7.89;77.37;100485.75;4995588;28;20050;-80
2020/12/03 03:41:09;;;;;;;156.48;39.40;;;;;;;7.90;77.34;100487.44;5011966;28;20046;-81
2020/12/03 03:43:36;;;;;;;123.47;34.22;;;;;;;7.91;77.50;100483.91;5013453;28;20042;-81
2020/12/03 03:46:02;;;;;;;138.15;35.95;;;;;;;7.95;77.56;100480.22;4993207;28;20046;-81
2020/12/03 03:48:28;;;;;;;129.85;35.20;;;;;;;8.01;77.98;100475.63;5011686;28;20056;-81
2020/12/03 03:50:54;;;;;;;115.30;34.97;;;;;;;8.05;77.90;100469.31;4996297;28;20042;-80
2020/12/03 03:53:20;;;;;;;119.53;34.30;;;;;;;8.10;78.00;100469.94;4993374;28;20053;-80
2020/12/03 03:55:46;;;;;;;118.30;33.45;;;;;;;8.16;77.99;100456.53;5014556;28;20191;-81
2020/12/03 03:58:12;;;;;;;118.57;33.63;;;;;;;8.23;77.88;100458.00;4999760;28;20048;-81
2020/12/03 04:00:44;;;;;;;107.38;31.80;;;;;;;8.30;77.65;100453.31;5010008;28;20054;-81
2020/12/03 04:03:13;;;;;;;115.30;33.78;;;;;;;8.34;77.55;100449.63;5012729;28;20038;-81
2020/12/03 04:05:40;;;;;;;94.50;32.05;;;;;;;8.38;77.70;100441.53;5013099;28;20041;-81
2020/12/03 04:08:07;;;;;;;114.28;32.38;;;;;;;8.43;77.60;100440.50;4984134;28;20583;-80
2020/12/03 04:10:34;;;;;;;103.63;32.22;;;;;;;8.46;77.44;100428.03;4994668;28;20128;-81
2020/12/03 04:13:00;;;;;;;107.10;32.58;;;;;;;8.48;77.39;100426.19;4994160;28;20096;-81
2020/12/03 04:15:26;;;;;;;111.65;33.25;;;;;;;8.50;77.65;100423.47;4988658;28;20493;-81
2020/12/03 04:17:53;;;;;;;106.25;32.38;;;;;;;8.54;77.38;100425.06;4995756;28;20046;-81
2020/12/03 04:20:22;;;;;;;101.13;31.23;;;;;;;8.57;77.21;100435.50;5011714;28;20493;-81
2020/12/03 04:22:49;;;;;;;99.72;30.02;;;;;;;8.60;77.46;100435.34;5014522;28;20044;-81
2020/12/03 04:25:15;;;;;;;103.10;32.65;;;;;;;8.61;77.47;100426.50;4984392;28;20042;-80
2020/12/03 04:27:41;;;;;;;106.50;32.38;;;;;;;8.64;77.29;100429.00;4999192;28;20038;-80
2020/12/03 04:30:10;;;;;;;91.55;31.60;;;;;;;8.68;77.32;100427.97;5016889;28;20042;-79
2020/12/03 04:32:37;;;;;;;113.80;35.08;;;;;;;8.70;77.33;100426.09;4996738;28;20042;-79
2020/12/03 04:35:05;;;;;;;96.30;31.42;;;;;;;8.72;77.18;100424.25;5010562;28;20049;-80
2020/12/03 04:37:32;;;;;;;106.88;33.72;;;;;;;8.74;77.41;100422.41;5010347;28;20037;-83
2020/12/03 04:39:58;;;;;;;112.25;34.42;;;;;;;8.76;77.36;100415.28;5015184;28;20104;-82
2020/12/03 04:42:29;;;;;;;119.85;34.88;;;;;;;8.77;77.17;100409.03;5030087;28;20124;-80
2020/12/03 04:45:03;;;;;;;125.40;36.45;;;;;;;8.75;76.68;100407.41;5032404;28;20114;-80
2020/12/03 04:47:38;;;;;;;130.50;36.92;;;;;;;8.71;76.78;100396.13;5029500;28;20551;-80
2020/12/03 04:50:35;;;;;;;131.80;36.50;;;;;;;8.69;76.71;100387.41;4990525;28;20049;-80
2020/12/03 04:53:13;;;;;;;135.68;37.67;;;;;;;8.63;76.37;100382.41;4993929;28;20069;-80
2020/12/03 04:55:49;;;;;;;156.70;39.35;;;;;;;8.58;76.34;100373.84;5031923;28;20042;-80
2020/12/03 04:58:42;;;;;;;156.82;37.38;;;;;;;8.55;76.89;100369.56;5012505;28;20068;-81
2020/12/03 05:01:52;;;;;;;146.77;42.00;;;;;;;8.50;77.03;100360.13;5026392;28;20048;-82
2020/12/03 05:04:39;;;;;;;197.90;40.35;;;;;;;8.46;76.95;100359.41;5021371;28;20054;-80
2020/12/03 05:07:08;;;;;;;147.93;39.20;;;;;;;8.46;77.19;100353.28;5010871;28;20062;-79
2020/12/03 05:09:43;;;;;;;179.05;41.08;;;;;;;8.45;77.26;100346.28;5026267;28;20068;-79
2020/12/03 05:12:15;;;;;;;195.13;41.08;;;;;;;8.44;77.11;100344.56;5011567;28;20459;-80
2020/12/03 05:14:51;;;;;;;140.60;40.58;;;;;;;8.43;76.97;100337.56;5012558;28;20038;-80
2020/12/03 05:17:36;;;;;;;;;;;;;;;8.41;77.16;100323.56;5002561;28;20058;-80
2020/12/03 05:20:20;;;;;;;177.27;37.78;;;;;;;8.37;77.06;100318.41;5012126;28;19925;-79
2020/12/03 05:23:00;;;;;;;135.82;36.90;;;;;;;8.36;77.04;100306.16;5030592;28;20045;-80
2020/12/03 05:25:27;;;;;;;120.30;34.05;;;;;;;8.34;77.20;100296.59;4998861;28;20054;-80
2020/12/03 05:27:58;;;;;;;124.07;36.20;;;;;;;8.32;77.05;100293.16;5032125;28;20037;-81
2020/12/03 05:30:25;;;;;;;157.77;38.90;;;;;;;8.30;77.47;100290.56;5030833;28;20056;-81
2020/12/03 05:32:51;;;;;;;146.02;37.30;;;;;;;8.30;77.24;100295.00;5029685;28;20048;-81
2020/12/03 05:35:18;;;;;;;131.25;35.40;;;;;;;8.30;77.45;100295.84;5019180;28;20053;-82
2020/12/03 05:37:45;;;;;;;141.65;32.05;;;;;;;8.31;77.29;100287.03;4987222;28;20119;-80
2020/12/03 05:40:24;;;;;;;177.35;36.53;;;;;;;8.33;77.29;100295.72;4999811;28;20038;-80
2020/12/03 05:42:54;;;;;;;172.38;34.83;;;;;;;8.35;77.08;100293.88;5002717;28;20154;-80
2020/12/03 05:45:29;;;;;;;119.55;32.33;;;;;;;8.35;77.46;100293.88;4986720;28;20042;-80
2020/12/03 05:47:55;;;;;;;143.13;32.90;;;;;;;8.35;77.63;100288.59;4983800;28;20038;-80
2020/12/03 05:50:38;;;;;;;132.23;30.30;;;;;;;8.34;77.05;100281.63;5000791;28;20085;-80
2020/12/03 05:53:06;;;;;;;146.45;35.95;;;;;;;8.33;77.27;100279.91;4998105;28;20049;-80
2020/12/03 05:55:33;;;;;;;165.50;35.78;;;;;;;8.33;77.13;100279.91;5015581;28;20045;-81
2020/12/03 05:58:19;;;;;;;104.40;34.60;;;;;;;8.31;77.20;100271.19;5012111;28;20042;-80
2020/12/03 06:00:46;;;;;;;148.55;34.40;;;;;;;8.30;77.11;100264.19;4985723;28;20055;-81
2020/12/03 06:03:31;;;;;;;125.28;34.05;;;;;;;8.28;77.17;100263.41;4999512;28;20049;-80
2020/12/03 06:06:33;;;;;;;151.25;34.58;;;;;;;8.26;77.13;100260.00;5015762;28;20448;-80
2020/12/03 06:09:29;;;;;;;208.50;34.90;;;;;;;8.27;77.43;100260.84;4965565;28;20049;-80
2020/12/03 06:12:10;;;;;;;;;;;;;;;8.26;77.07;100257.34;5015714;28;20034;-80
2020/12/03 06:14:51;;;;;;;170.80;32.60;;;;;;;8.25;77.52;100249.50;5014861;28;19921;-80
2020/12/03 06:17:29;;;;;;;212.95;35.67;;;;;;;8.23;77.36;100241.69;5014526;28;20053;-80
2020/12/03 06:20:05;;;;;;;198.07;34.33;;;;;;;8.23;77.24;100241.69;5010197;28;20410;-80
2020/12/03 06:22:53;;;;;;;158.30;32.50;;;;;;;8.21;77.36;100234.75;4984011;28;20042;-80
2020/12/03 06:25:44;;;;;;;159.45;32.38;;;;;;;8.19;77.47;100221.63;4990689;28;20042;-80
2020/12/03 06:28:40;;;;;;;116.25;33.58;;;;;;;8.18;77.35;100217.28;5015926;28;20501;-80
2020/12/03 06:31:31;;;;;;;137.40;32.17;;;;;;;8.18;77.23;100217.28;5044992;23;20057;-78
2020/12/03 06:34:41;;;;;;;165.90;32.47;;;;;;;8.16;77.15;100204.16;5016489;28;20064;-78
2020/12/03 06:37:41;;;;;;;178.05;31.50;;;;;;;8.16;77.29;100203.31;5030513;28;20061;-78
2020/12/03 06:40:14;;;;;;;152.52;30.33;;;;;;;8.15;77.33;100196.31;5031136;28;20570;-78
2020/12/03 06:42:49;;;;;;;143.15;29.25;;;;;;;8.13;77.57;100193.72;5032802;28;20045;-78
2020/12/03 06:45:38;;;;;;;130.80;29.40;;;;;;;8.13;77.50;100195.53;5015823;28;20045;-78
2020/12/03 06:48:32;;;;;;;160.15;29.85;;;;;;;8.15;77.72;100177.84;5031342;28;20284;-78
2020/12/03 06:51:10;;;;;;;171.15;30.83;;;;;;;8.13;77.53;100183.19;5034701;28;20053;-76
2020/12/03 06:54:04;;;;;;;108.20;27.88;;;;;;;8.14;77.18;100168.25;5015918;28;20500;-77
2020/12/03 06:56:48;;;;;;;112.47;29.48;;;;;;;8.13;77.41;100171.78;5033704;28;20049;-79
2020/12/03 06:59:56;;;;;;;105.40;29.35;;;;;;;8.09;77.55;100171.06;5028599;28;20456;-78
2020/12/03 07:02:56;;;;;;;105.80;26.98;;;;;;;8.09;77.37;100175.50;5016424;28;20046;-77
2020/12/03 07:06:07;;;;;;;128.45;29.98;;;;;;;8.10;77.56;100166.63;5015387;28;20059;-78
2020/12/03 07:08:56;;;;;;;131.38;28.73;;;;;;;8.10;77.24;100172.78;4955843;28;20054;-78
2020/12/03 07:11:58;;;;;;;122.97;27.70;;;;;;;8.10;77.62;100164.00;5032653;28;20048;-78
2020/12/03 07:14:50;;;;;;;83.45;26.33;;;;;;;8.10;77.56;100166.63;5034325;28;20394;-77
2020/12/03 07:17:40;;;;;;;106.35;28.83;;;;;;;8.08;77.38;100157.94;5016737;28;20052;-77
2020/12/03 07:20:39;;;;;;;126.53;27.35;;;;;;;8.09;77.76;100159.66;5005041;28;20456;-79
2020/12/03 07:23:40;;;;;;;108.97;26.75;;;;;;;8.10;77.38;100161.38;5006340;28;20033;-78
2020/12/03 07:26:57;;;;;;;106.65;25.13;;;;;;;8.08;77.33;100150.03;5014098;28;20045;-78
2020/12/03 07:29:45;;;;;;;85.88;25.98;;;;;;;8.07;77.33;100146.56;4992060;28;20053;-78
2020/12/03 07:32:56;;;;;;;118.85;26.42;;;;;;;8.06;77.78;100144.84;5035016;28;20416;-78
2020/12/03 07:35:41;;;;;;;98.72;24.67;;;;;;;8.06;77.68;100139.59;5000031;28;20050;-78
2020/12/03 07:38:35;;;;;;;91.30;23.60;;;;;;;8.06;77.82;100144.84;5016209;28;20041;-78
2020/12/03 07:41:01;;;;;;;107.15;25.58;;;;;;;8.07;77.25;100145.69;5030950;28;20040;-78
2020/12/03 07:43:31;;;;;;;100.20;24.73;;;;;;;8.08;77.28;100153.56;5015650;28;20080;-78
2020/12/03 07:45:58;;;;;;;93.47;24.00;;;;;;;8.08;77.28;100136.84;5015637;28;20341;-78
2020/12/03 07:48:30;;;;;;;100.00;25.20;;;;;;;8.10;77.62;100135.00;5013468;28;20060;-77
2020/12/03 07:51:02;;;;;;;91.78;21.80;;;;;;;8.12;77.08;100117.34;5014692;28;20550;-78
2020/12/03 07:53:30;;;;;;;84.40;23.95;;;;;;;8.14;77.32;100123.41;5014148;28;20050;-78
2020/12/03 07:55:57;;;;;;;78.70;21.80;;;;;;;8.14;77.35;100111.06;5031401;28;20049;-77
2020/12/03 07:58:31;;;;;;;88.63;22.35;;;;;;;8.15;77.32;100111.91;5016161;28;20065;-78
2020/12/03 08:00:57;;;;;;;89.07;25.08;;;;;;;8.16;77.20;100108.34;5010330;28;20042;-77
2020/12/03 08:03:41;;;;;;;83.20;24.30;;;;;;;8.18;77.49;100106.50;5018128;28;20049;-78
2020/12/03 08:06:13;;;;;;;86.45;22.95;;;;;;;8.21;77.39;100106.34;5013413;28;20397;-77
2020/12/03 08:08:41;;;;;;;75.03;24.20;;;;;;;8.21;77.24;100108.97;5021666;28;20037;-77
2020/12/03 08:11:41;;;;;;;87.68;24.60;;;;;;;8.20;77.10;100104.63;5033441;28;20041;-78
2020/12/03 08:14:41;;;;;;;77.82;23.60;;;;;;;8.18;77.22;100096.78;5032601;28;20044;-77
2020/12/03 08:17:16;;;;;;;89.05;23.73;;;;;;;8.18;76.96;100099.44;5031667;28;20056;-77
2020/12/03 08:19:45;;;;;;;80.53;23.25;;;;;;;8.18;77.14;100101.22;5013930;28;20047;-77
2020/12/03 08:22:28;;;;;;;65.53;21.88;;;;;;;8.19;77.25;100098.53;5014957;28;20551;-77
2020/12/03 08:25:01;;;;;;;93.80;24.27;;;;;;;8.23;77.30;100088.69;5014677;28;20049;-79
2020/12/03 08:27:27;;;;;;;65.47;23.02;;;;;;;8.25;77.11;100094.75;5032833;28;20053;-78
2020/12/03 08:29:53;;;;;;;82.82;23.45;;;;;;;8.27;77.20;100082.31;5031886;28;20041;-78
2020/12/03 08:32:19;;;;;;;73.28;24.25;;;;;;;8.29;77.09;100083.09;5015314;28;20128;-78
2020/12/03 08:34:45;;;;;;;68.93;23.92;;;;;;;8.30;77.04;100074.25;5014625;28;20052;-77
2020/12/03 08:37:23;;;;;;;68.28;23.58;;;;;;;8.30;77.21;100071.59;5015109;28;20040;-78
2020/12/03 08:39:55;;;;;;;85.43;26.13;;;;;;;8.32;76.98;100060.97;5032129;28;20045;-79
2020/12/03 08:42:21;;;;;;;67.80;23.15;;;;;;;8.33;77.16;100057.44;5002509;28;20508;-79
2020/12/03 08:44:51;;;;;;;89.20;25.23;;;;;;;8.33;76.98;100058.28;5004395;28;20049;-79
2020/12/03 08:47:33;;;;;;;93.75;27.38;;;;;;;8.35;76.88;100055.56;5015782;28;20110;-78
2020/12/03 08:50:01;;;;;;;95.05;26.17;;;;;;;8.38;77.19;100045.72;5011067;28;20528;-79
2020/12/03 08:52:30;;;;;;;80.35;24.95;;;;;;;8.38;76.63;100040.44;5033694;28;20041;-79
2020/12/03 08:55:05;;;;;;;99.30;27.05;;;;;;;8.44;76.93;100038.44;5033656;28;20493;-79
2020/12/03 08:57:35;;;;;;;74.95;25.52;;;;;;;8.46;77.10;100044.53;5013216;28;20061;-78
2020/12/03 09:00:04;;;;;;;78.25;25.17;;;;;;;8.48;76.74;100040.88;5033199;28;20463;-78
2020/12/03 09:02:31;;;;;;;68.30;24.80;;;;;;;8.49;76.47;100039.09;5027417;28;20052;-79
2020/12/03 09:04:59;;;;;;;84.20;26.58;;;;;;;8.49;76.67;100047.00;5015581;28;20041;-79
2020/12/03 09:07:31;;;;;;;72.53;25.98;;;;;;;8.49;76.99;100047.00;5034310;28;20120;-78
2020/12/03 09:09:59;;;;;;;78.60;24.80;;;;;;;8.46;76.96;100041.91;5033099;28;20052;-79
2020/12/03 09:12:36;;;;;;;65.75;23.77;;;;;;;8.45;76.86;100034.91;5035226;28;20390;-79
2020/12/03 09:15:05;;;;;;;66.93;23.63;;;;;;;8.45;76.80;100034.91;5018147;28;20045;-79
2020/12/03 09:17:34;;;;;;;69.20;24.70;;;;;;;8.45;76.85;100032.25;5019291;28;20067;-80
2020/12/03 09:20:05;;;;;;;86.45;24.73;;;;;;;8.45;76.73;100019.06;5046282;28;20030;-78
2020/12/03 09:22:34;;;;;;;76.35;25.83;;;;;;;8.45;77.11;100021.69;5031495;28;20049;-79
2020/12/03 09:25:04;;;;;;;72.38;23.40;;;;;;;8.44;76.97;100004.16;5033422;28;20037;-79
2020/12/03 09:27:30;;;;;;;72.90;25.63;;;;;;;8.43;77.08;100010.38;5021688;28;20053;-79
2020/12/03 09:29:58;;;;;;;68.55;24.88;;;;;;;8.39;76.90;99999.91;5053310;28;20059;-80
2020/12/03 09:32:25;;;;;;;68.60;23.50;;;;;;;8.38;76.80;99992.97;5047196;28;20489;-79
2020/12/03 09:34:55;;;;;;;71.65;23.60;;;;;;;8.36;77.06;99993.94;5014028;28;20065;-78
2020/12/03 09:37:21;;;;;;;82.68;26.17;;;;;;;8.35;76.93;99998.38;5013759;28;20049;-78
2020/12/03 09:39:47;;;;;;;74.25;22.90;;;;;;;8.34;76.88;99991.41;5021935;28;20050;-78
2020/12/03 09:42:16;;;;;;;86.10;25.35;;;;;;;8.32;76.97;99993.25;5011683;28;20424;-78
2020/12/03 09:44:47;;;;;;;85.03;29.73;;;;;;;8.32;77.02;99982.69;5013184;28;20106;-78
2020/12/03 09:47:18;;;;;;;96.72;27.23;;;;;;;8.32;77.28;99972.13;5036502;28;20087;-78
2020/12/03 09:49:46;;;;;;;82.35;25.30;;;;;;;8.36;77.17;99963.16;5015273;28;20131;-78
2020/12/03 09:52:13;;;;;;;72.38;26.63;;;;;;;8.35;76.69;99948.25;5031937;28;20120;-78
2020/12/03 09:54:40;;;;;;;76.43;25.48;;;;;;;8.36;76.84;99947.31;5048244;28;20052;-78
2020/12/03 09:57:11;;;;;;;69.32;24.65;;;;;;;8.38;76.68;99940.19;5003088;28;20045;-79
2020/12/03 09:59:38;;;;;;;85.80;28.40;;;;;;;8.43;76.88;99925.94;5032577;28;20415;-78
2020/12/03 10:02:14;;;;;;;79.22;26.27;;;;;;;8.46;76.88;99913.44;5044698;28;20053;-78
2020/12/03 10:05:17;;;;;;;94.88;26.90;;;;;;;8.48;76.72;99916.00;5051035;28;20051;-78
2020/12/03 10:08:08;;;;;;;83.38;25.95;;;;;;;8.49;76.68;99915.06;5048380;28;20447;-80
2020/12/03 10:11:01;;;;;;;85.43;26.63;;;;;;;8.48;76.49;99905.44;5017723;28;20412;-78
2020/12/03 10:13:51;;;;;;;88.15;25.50;;;;;;;8.48;76.66;99902.81;5023502;28;20057;-78
2020/12/03 10:16:23;;;;;;;79.78;25.60;;;;;;;8.48;76.58;99902.81;5018239;28;20092;-78
2020/12/03 10:18:52;;;;;;;92.38;27.90;;;;;;;8.48;76.75;99886.97;5035438;28;20107;-79
2020/12/03 10:21:32;;;;;;;77.97;26.80;;;;;;;8.49;76.78;99888.66;5017247;28;20058;-79
2020/12/03 10:24:23;;;;;;;85.05;26.00;;;;;;;8.47;76.92;99885.25;5017750;28;20057;-79
2020/12/03 10:27:07;;;;;;;68.32;23.33;;;;;;;8.47;76.69;99890.53;5018240;28;20100;-78
2020/12/03 10:29:37;;;;;;;50.90;22.13;;;;;;;8.46;76.78;99878.28;5037948;28;20056;-78
2020/12/03 10:32:13;;;;;;;73.97;27.25;;;;;;;8.46;76.70;99878.28;5021944;28;20096;-78
2020/12/03 10:34:42;;;;;;;61.17;25.10;;;;;;;8.46;76.49;99868.59;5027130;28;20045;-79
2020/12/03 10:37:46;;;;;;;63.08;23.75;;;;;;;8.48;76.67;99856.16;5034390;28;20049;-79
2020/12/03 10:40:18;;;;;;;65.97;24.90;;;;;;;8.51;76.47;99844.56;4996866;28;20088;-79
2020/12/03 10:42:48;;;;;;;75.80;25.70;;;;;;;8.55;76.69;99840.84;5019684;28;20045;-78
2020/12/03 10:45:20;;;;;;;60.75;23.33;;;;;;;8.58;76.62;99838.88;5037851;28;20104;-78
2020/12/03 10:47:51;;;;;;;64.00;23.38;;;;;;;8.64;76.63;99840.34;5035896;28;20048;-79
2020/12/03 10:50:18;;;;;;;77.18;25.67;;;;;;;8.67;76.85;99824.38;5015634;28;20131;-79
2020/12/03 10:52:45;;;;;;;64.57;24.55;;;;;;;8.71;76.65;99820.63;5035721;28;20121;-79
2020/12/03 10:55:17;;;;;;;59.08;24.27;;;;;;;8.81;76.62;99809.56;5019149;28;20045;-79
2020/12/03 10:57:52;;;;;;;60.22;23.63;;;;;;;8.88;76.33;99806.50;5017175;28;20045;-79
2020/12/03 11:00:20;;;;;;;46.53;21.73;;;;;;;8.94;76.44;99794.75;5028242;28;20064;-79
2020/12/03 11:02:51;;;;;;;56.50;22.40;;;;;;;8.98;76.29;99793.63;5022067;28;20053;-79
2020/12/03 11:05:17;;;;;;;58.38;22.52;;;;;;;9.00;76.19;99794.41;5048121;28;20042;-79
2020/12/03 11:07:52;;;;;;;54.28;22.27;;;;;;;9.03;76.24;99796.88;5016566;28;20045;-79
2020/12/03 11:10:19;;;;;;;53.92;20.02;;;;;;;9.04;76.23;99785.41;5017768;28;20047;-79
2020/12/03 11:12:48;;;;;;;50.05;20.17;;;;;;;9.07;76.06;99779.94;5017335;28;20103;-79
2020/12/03 11:15:14;;;;;;;47.05;20.02;;;;;;;9.07;76.10;99785.22;5026224;28;20041;-79
2020/12/03 11:17:56;;;;;;;50.55;21.13;;;;;;;9.12;76.48;99777.88;5037977;28;20053;-79
2020/12/03 11:20:43;;;;;;;51.17;20.55;;;;;;;9.24;76.11;99764.91;4991950;28;20131;-79
2020/12/03 11:23:27;;;;;;;46.25;19.13;;;;;;;9.38;76.16;99759.72;5021436;28;20045;-79
2020/12/03 11:26:03;;;;;;;51.60;20.23;;;;;;;9.52;75.67;99754.47;5030676;28;20052;-79
2020/12/03 11:28:34;;;;;;;38.20;18.70;;;;;;;9.58;75.74;99744.47;5028260;28;20045;-78
2020/12/03 11:31:07;;;;;;;48.38;19.75;;;;;;;9.61;75.55;99746.94;5017497;28;20049;-79
2020/12/03 11:33:39;;;;;;;44.65;19.52;;;;;;;9.63;75.82;99745.06;5035655;28;20124;-79
2020/12/03 11:36:10;;;;;;;32.53;17.38;;;;;;;9.64;75.52;99730.88;5014616;28;20041;-79
2020/12/03 11:38:38;;;;;;;43.45;19.08;;;;;;;9.64;75.57;99736.19;5017871;28;20425;-78
2020/12/03 11:41:13;;;;;;;42.42;18.65;;;;;;;9.64;75.63;99730.88;5001614;28;20524;-79
2020/12/03 11:49:03;;;;;;;36.72;17.13;;;;;;;9.54;75.76;99720.84;5034459;28;20049;-78